createdAt,value
2023-03-15T00:02:07.492Z,10.25
2023-03-15T00:04:37.203Z,12.52
2023-03-15T00:07:06.042Z,10.48
2023-03-15T00:09:36.462Z,12.07
2023-03-15T00:12:06.034Z,10.05
2023-03-15T00:14:35.103Z,10.80
2023-03-15T00:17:03.884Z,11.27
2023-03-15T00:19:32.935Z,10.10
2023-03-15T00:22:01.864Z,10.07
2023-03-15T00:24:30.929Z,9.40
2023-03-15T00:27:01.218Z,10.88
2023-03-15T00:29:30.517Z,9.02
2023-03-15T00:31:59.496Z,10.48
2023-03-15T00:34:28.620Z,10.38
2023-03-15T00:36:57.368Z,9.80
2023-03-15T00:39:26.628Z,6.15
2023-03-15T00:41:57.177Z,4.20
2023-03-15T00:44:29.205Z,3.35
2023-03-15T00:46:57.998Z,4.63
2023-03-15T00:49:27.253Z,1.40
2023-03-15T00:51:56.739Z,1.30
2023-03-15T00:54:25.793Z,1.00
2023-03-15T00:56:54.709Z,1.02
2023-03-15T00:59:23.811Z,2.33
2023-03-15T01:01:54.069Z,1.73
2023-03-15T01:04:24.543Z,1.90
2023-03-15T01:06:53.437Z,1.15
2023-03-15T01:09:23.358Z,1.65
2023-03-15T01:11:52.628Z,2.53
2023-03-15T01:14:21.745Z,1.10
2023-03-15T01:16:50.620Z,1.13
2023-03-15T01:19:21.129Z,1.08
2023-03-15T01:21:49.991Z,1.00
2023-03-15T01:24:19.750Z,1.15
2023-03-15T01:26:50.773Z,0.98
2023-03-15T01:29:19.933Z,1.15
2023-03-15T01:31:48.862Z,1.25
2023-03-15T01:34:20.155Z,1.33
2023-03-15T01:36:52.453Z,2.72
2023-03-15T01:39:22.959Z,0.90
2023-03-15T01:41:51.836Z,2.47
2023-03-15T01:44:24.175Z,2.55
2023-03-15T01:46:53.765Z,1.98
2023-03-15T01:49:31.995Z,2.10
2023-03-15T01:52:07.388Z,1.60
2023-03-15T01:55:06.315Z,1.15
2023-03-15T01:57:40.201Z,1.65
2023-03-15T02:00:16.867Z,1.15
2023-03-15T02:03:02.058Z,1.33
2023-03-15T02:05:46.136Z,1.88
2023-03-15T02:08:24.298Z,1.55
2023-03-15T02:10:58.737Z,1.25
2023-03-15T02:13:30.726Z,1.95
2023-03-15T02:16:06.935Z,1.27
2023-03-15T02:18:43.451Z,1.98
2023-03-15T02:21:34.151Z,1.05
2023-03-15T02:24:26.013Z,2.40
2023-03-15T02:26:58.303Z,4.03
2023-03-15T02:29:31.092Z,3.20
2023-03-15T02:32:01.192Z,3.67
2023-03-15T02:34:30.027Z,2.00
2023-03-15T02:36:59.417Z,1.67
2023-03-15T02:39:29.387Z,3.53
2023-03-15T02:42:00.166Z,3.17
2023-03-15T02:44:37.557Z,2.40
2023-03-15T02:47:12.323Z,3.90
2023-03-15T02:49:44.661Z,4.75
2023-03-15T02:52:14.832Z,2.95
2023-03-15T02:54:44.096Z,4.53
2023-03-15T02:57:15.898Z,3.13
2023-03-15T02:59:50.875Z,4.45
2023-03-15T03:02:20.722Z,2.50
2023-03-15T03:04:49.906Z,2.60
2023-03-15T03:07:20.916Z,2.10
2023-03-15T03:10:04.184Z,2.03
2023-03-15T03:12:42.403Z,3.03
2023-03-15T03:15:13.420Z,2.55
2023-03-15T03:17:43.159Z,2.05
2023-03-15T03:20:14.953Z,2.60
2023-03-15T03:22:48.305Z,4.10
2023-03-15T03:25:19.455Z,3.40
2023-03-15T03:27:49.872Z,2.22
2023-03-15T03:30:20.269Z,3.50
2023-03-15T03:32:53.257Z,4.63
2023-03-15T03:35:23.278Z,3.78
2023-03-15T03:37:53.945Z,3.30
2023-03-15T03:40:29.226Z,4.53
2023-03-15T03:42:58.351Z,2.60
2023-03-15T03:45:28.506Z,4.10
2023-03-15T03:48:00.779Z,3.97
2023-03-15T03:50:30.036Z,5.30
2023-03-15T03:52:59.189Z,4.32
2023-03-15T03:55:34.033Z,3.85
2023-03-15T03:58:03.133Z,4.60
2023-03-15T04:00:55.502Z,9.32
2023-03-15T04:03:28.331Z,3.20
2023-03-15T04:06:06.466Z,3.72
2023-03-15T04:08:41.151Z,4.55
2023-03-15T04:11:12.559Z,4.63
2023-03-15T04:13:43.171Z,5.80
2023-03-15T04:16:14.685Z,5.05
2023-03-15T04:19:06.412Z,6.53
2023-03-15T04:21:37.222Z,4.55
2023-03-15T04:24:36.122Z,6.07
2023-03-15T04:27:14.908Z,5.63
2023-03-15T04:30:14.317Z,6.55
2023-03-15T04:32:47.119Z,6.35
2023-03-15T04:35:42.722Z,7.75
2023-03-15T04:38:32.409Z,6.20
2023-03-15T04:41:27.074Z,7.53
2023-03-15T04:44:19.078Z,8.90
2023-03-15T04:46:48.185Z,7.32
2023-03-15T04:49:32.391Z,10.50
2023-03-15T04:52:19.903Z,7.68
2023-03-15T04:55:12.299Z,9.43
2023-03-15T04:57:58.696Z,8.10
2023-03-15T05:00:46.532Z,8.18
2023-03-15T05:03:31.613Z,8.98
2023-03-15T05:06:21.734Z,5.50
2023-03-15T05:09:08.116Z,8.27
2023-03-15T05:11:36.878Z,10.60
2023-03-15T05:14:15.084Z,11.98
2023-03-15T05:17:05.277Z,9.48
2023-03-15T05:19:49.835Z,11.20
2023-03-15T05:22:32.848Z,6.75
2023-03-15T05:25:20.678Z,8.68
2023-03-15T05:28:07.701Z,8.90
2023-03-15T05:31:03.623Z,7.63
2023-03-15T05:33:54.543Z,8.63
2023-03-15T05:36:48.509Z,10.95
2023-03-15T05:39:34.766Z,10.18
2023-03-15T05:42:27.708Z,8.20
2023-03-15T05:44:59.556Z,10.38
2023-03-15T05:47:54.020Z,10.73
2023-03-15T05:50:29.105Z,9.18
2023-03-15T05:53:08.778Z,7.70
2023-03-15T05:55:48.620Z,10.48
2023-03-15T05:58:40.079Z,11.10
2023-03-15T06:01:14.678Z,7.63
2023-03-15T06:04:03.753Z,8.88
2023-03-15T06:06:34.258Z,8.52
2023-03-15T06:09:05.895Z,13.13
2023-03-15T06:11:36.484Z,9.30
2023-03-15T06:14:06.556Z,9.45
2023-03-15T06:16:51.382Z,10.25
2023-03-15T06:19:21.755Z,7.97
2023-03-15T06:21:51.729Z,7.65
2023-03-15T06:24:56.129Z,8.77
2023-03-15T06:27:27.486Z,9.85
2023-03-15T06:29:58.656Z,11.57
2023-03-15T06:32:27.805Z,10.32
2023-03-15T06:34:57.099Z,10.20
2023-03-15T06:37:35.137Z,11.00
2023-03-15T06:40:08.883Z,10.07
2023-03-15T06:42:41.742Z,10.57
2023-03-15T06:45:16.424Z,9.25
2023-03-15T06:47:47.065Z,15.05
2023-03-15T06:50:18.322Z,7.30
2023-03-15T06:52:47.147Z,11.85
2023-03-15T06:55:18.326Z,10.45
2023-03-15T06:57:48.893Z,12.13
2023-03-15T07:00:19.411Z,11.30
2023-03-15T07:02:48.308Z,9.95
2023-03-15T07:05:18.093Z,10.85
2023-03-15T07:07:46.878Z,13.07
2023-03-15T07:10:16.006Z,12.55
2023-03-15T07:12:44.794Z,14.02
2023-03-15T07:15:17.224Z,9.65
2023-03-15T07:17:46.311Z,10.63
2023-03-15T07:20:15.417Z,14.30
2023-03-15T07:22:45.622Z,10.02
2023-03-15T07:25:14.814Z,9.82
2023-03-15T07:27:43.585Z,9.15
2023-03-15T07:30:15.515Z,7.85
2023-03-15T07:32:44.432Z,10.23
2023-03-15T07:35:13.852Z,11.98
2023-03-15T07:37:44.718Z,12.45
2023-03-15T07:40:16.337Z,8.13
2023-03-15T07:42:46.032Z,8.55
2023-03-15T07:45:17.545Z,9.25
2023-03-15T07:47:46.360Z,8.93
2023-03-15T07:50:17.346Z,10.50
2023-03-15T07:52:46.236Z,11.40
2023-03-15T07:55:15.665Z,7.78
2023-03-15T07:57:44.492Z,15.75
2023-03-15T08:00:16.735Z,10.68
2023-03-15T08:02:45.977Z,10.60
2023-03-15T08:05:15.737Z,9.48
2023-03-15T08:07:44.748Z,9.60
2023-03-15T08:10:14.958Z,9.13
2023-03-15T08:12:44.849Z,8.02
2023-03-15T08:15:16.707Z,10.82
2023-03-15T08:17:45.957Z,6.03
2023-03-15T08:20:17.804Z,7.65
2023-03-15T08:22:47.984Z,12.65
2023-03-15T08:25:20.936Z,7.05
2023-03-15T08:27:50.331Z,8.25
2023-03-15T08:30:22.654Z,5.70
2023-03-15T08:32:52.992Z,11.40
2023-03-15T08:35:23.707Z,11.15
2023-03-15T08:37:52.664Z,7.82
2023-03-15T08:40:25.504Z,8.20
2023-03-15T08:43:13.041Z,7.47
2023-03-15T08:46:01.896Z,8.20
2023-03-15T08:48:31.616Z,9.32
2023-03-15T08:51:04.563Z,10.07
2023-03-15T08:53:33.849Z,10.18
2023-03-15T08:56:04.068Z,8.95
2023-03-15T08:58:32.969Z,9.65
2023-03-15T09:01:04.971Z,8.77
2023-03-15T09:03:34.414Z,9.73
2023-03-15T09:06:03.551Z,10.82
2023-03-15T09:08:33.581Z,7.00
2023-03-15T09:11:03.911Z,6.05
2023-03-15T09:13:32.830Z,10.25
2023-03-15T09:16:04.080Z,8.85
2023-03-15T09:18:34.072Z,9.05
2023-03-15T09:21:03.359Z,12.20
2023-03-15T09:23:32.313Z,10.57
2023-03-15T09:26:01.415Z,6.68
2023-03-15T09:28:30.553Z,11.82
2023-03-15T09:31:00.133Z,8.80
2023-03-15T09:33:33.244Z,9.98
2023-03-15T09:36:02.388Z,5.90
2023-03-15T09:38:31.215Z,9.88
2023-03-15T09:41:04.324Z,9.40
2023-03-15T09:43:50.780Z,7.60
2023-03-15T09:46:31.015Z,8.40
2023-03-15T09:49:13.455Z,10.00
2023-03-15T09:51:51.064Z,4.88
2023-03-15T09:54:27.688Z,8.23
2023-03-15T09:57:02.561Z,7.38
2023-03-15T09:59:36.314Z,13.75
2023-03-15T10:02:23.025Z,10.05
2023-03-15T10:04:59.218Z,6.97
2023-03-15T10:07:28.538Z,7.50
2023-03-15T10:09:59.068Z,7.82
2023-03-15T10:12:40.787Z,5.50
2023-03-15T10:15:36.501Z,6.57
2023-03-15T10:18:32.658Z,7.53
2023-03-15T10:21:13.459Z,5.75
2023-03-15T10:23:51.592Z,10.50
2023-03-15T10:26:29.387Z,7.18
2023-03-15T10:28:58.961Z,9.13
2023-03-15T10:31:46.458Z,8.55
2023-03-15T10:34:17.179Z,10.68
2023-03-15T10:36:50.432Z,7.55
2023-03-15T10:39:19.666Z,9.27
2023-03-15T10:41:50.935Z,6.78
2023-03-15T10:44:23.923Z,9.70
2023-03-15T10:47:21.469Z,7.50
2023-03-15T10:49:51.917Z,6.28
2023-03-15T10:52:35.714Z,7.53
2023-03-15T10:55:15.184Z,6.97
2023-03-15T10:57:56.008Z,9.43
2023-03-15T11:00:31.179Z,6.75
2023-03-15T11:03:06.711Z,8.65
2023-03-15T11:05:43.749Z,7.13
2023-03-15T11:08:17.304Z,12.27
2023-03-15T11:10:48.539Z,8.35
2023-03-15T11:13:22.598Z,8.02
2023-03-15T11:16:06.202Z,9.10
2023-03-15T11:18:44.083Z,8.57
2023-03-15T11:21:18.519Z,11.93
2023-03-15T11:23:52.556Z,6.70
2023-03-15T11:26:33.152Z,8.63
2023-03-15T11:29:07.475Z,6.20
2023-03-15T11:31:37.714Z,5.85
2023-03-15T11:34:13.687Z,8.82
2023-03-15T11:36:55.665Z,7.05
2023-03-15T11:39:45.718Z,8.50
2023-03-15T11:42:32.027Z,8.38
2023-03-15T11:45:10.867Z,9.48
2023-03-15T11:47:48.623Z,7.63
2023-03-15T11:50:18.837Z,10.25
2023-03-15T11:52:51.535Z,6.75
2023-03-15T11:55:27.014Z,7.03
2023-03-15T11:57:58.049Z,6.45
2023-03-15T12:00:54.867Z,4.70
2023-03-15T12:03:36.892Z,6.80
2023-03-15T12:06:38.201Z,7.13
2023-03-15T12:09:52.068Z,5.75
2023-03-15T12:12:47.288Z,6.95
2023-03-15T12:15:49.637Z,7.32
2023-03-15T12:18:28.862Z,5.70
2023-03-15T12:21:15.854Z,7.43
2023-03-15T12:23:59.590Z,6.93
2023-03-15T12:26:43.455Z,7.78
2023-03-15T12:29:24.345Z,9.98
2023-03-15T12:32:07.679Z,6.15
2023-03-15T12:34:49.008Z,5.47
2023-03-15T12:37:28.077Z,10.10
2023-03-15T12:40:24.100Z,5.50
2023-03-15T12:43:04.771Z,5.95
2023-03-15T12:45:45.676Z,9.45
2023-03-15T12:48:29.999Z,8.07
2023-03-15T12:51:05.774Z,7.97
2023-03-15T12:53:50.527Z,9.45
2023-03-15T12:56:50.674Z,7.13
2023-03-15T12:59:33.060Z,7.30
2023-03-15T13:02:35.954Z,8.45
2023-03-15T13:05:21.709Z,7.75
2023-03-15T13:07:58.413Z,9.68
2023-03-15T13:10:57.334Z,5.70
2023-03-15T13:13:46.988Z,6.13
2023-03-15T13:16:31.132Z,5.97
2023-03-15T13:19:18.131Z,7.85
2023-03-15T13:22:12.231Z,6.43
2023-03-15T13:24:53.568Z,8.15
2023-03-15T13:27:44.560Z,7.05
2023-03-15T13:30:34.311Z,9.02
2023-03-15T13:33:15.918Z,11.57
2023-03-15T13:35:49.615Z,7.47
2023-03-15T13:38:33.220Z,10.77
2023-03-15T13:41:05.729Z,8.82
2023-03-15T13:43:38.711Z,14.35
2023-03-15T13:46:08.028Z,6.65
2023-03-15T13:48:41.512Z,9.50
2023-03-15T13:51:22.815Z,7.72
2023-03-15T13:53:57.419Z,10.07
2023-03-15T13:56:47.039Z,10.13
2023-03-15T13:59:19.950Z,11.70
2023-03-15T14:01:54.390Z,10.77
2023-03-15T14:04:26.003Z,6.30
2023-03-15T14:07:24.398Z,8.88
2023-03-15T14:10:27.326Z,6.07
2023-03-15T14:12:58.434Z,8.63
2023-03-15T14:15:37.369Z,8.60
2023-03-15T14:18:20.606Z,7.43
2023-03-15T14:20:59.973Z,8.57
2023-03-15T14:23:31.902Z,8.52
2023-03-15T14:26:19.668Z,9.13
2023-03-15T14:28:56.525Z,12.15
2023-03-15T14:31:32.333Z,10.07
2023-03-15T14:34:10.275Z,11.02
2023-03-15T14:36:45.228Z,9.95
2023-03-15T14:39:26.449Z,8.80
2023-03-15T14:41:55.829Z,12.20
2023-03-15T14:44:24.720Z,9.20
2023-03-15T14:46:54.128Z,10.52
2023-03-15T14:49:26.369Z,9.65
2023-03-15T14:52:02.013Z,9.98
2023-03-15T14:54:34.071Z,9.75
2023-03-15T14:57:03.145Z,12.45
2023-03-15T14:59:31.993Z,9.43
2023-03-15T15:02:03.046Z,11.75
2023-03-15T15:04:37.637Z,16.35
2023-03-15T15:07:07.030Z,13.63
2023-03-15T15:09:40.077Z,10.52
2023-03-15T15:12:12.512Z,10.10
2023-03-15T15:14:42.786Z,9.30
2023-03-15T15:17:12.192Z,12.27
2023-03-15T15:19:41.022Z,13.70
2023-03-15T15:22:12.326Z,10.13
2023-03-15T15:25:00.995Z,11.25
2023-03-15T15:27:30.132Z,9.45
2023-03-15T15:29:58.927Z,9.77
2023-03-15T15:32:28.034Z,9.00
2023-03-15T15:34:57.016Z,11.38
2023-03-15T15:37:26.847Z,11.80
2023-03-15T15:39:55.847Z,12.20
2023-03-15T15:42:26.312Z,10.23
2023-03-15T15:44:55.279Z,12.93
2023-03-15T15:47:24.420Z,11.75
2023-03-15T15:49:53.216Z,10.27
2023-03-15T15:52:22.864Z,9.32
2023-03-15T15:54:51.711Z,10.48
2023-03-15T15:57:26.670Z,11.15
2023-03-15T15:59:56.813Z,15.30
2023-03-15T16:02:26.020Z,13.45
2023-03-15T16:04:55.247Z,8.43
2023-03-15T16:07:25.759Z,12.18
2023-03-15T16:09:59.027Z,12.10
2023-03-15T16:12:29.032Z,13.60
2023-03-15T16:14:59.230Z,13.10
2023-03-15T16:17:28.624Z,15.00
2023-03-15T16:19:57.404Z,10.15
2023-03-15T16:22:27.175Z,10.93
2023-03-15T16:25:01.474Z,13.13
2023-03-15T16:27:31.291Z,13.85
2023-03-15T16:30:02.864Z,12.77
2023-03-15T16:32:44.090Z,11.05
2023-03-15T16:35:15.637Z,11.75
2023-03-15T16:37:47.092Z,10.82
2023-03-15T16:40:23.146Z,12.82
2023-03-15T16:42:52.365Z,11.48
2023-03-15T16:45:22.897Z,15.15
2023-03-15T16:47:52.511Z,16.42
2023-03-15T16:50:21.847Z,17.08
2023-03-15T16:52:55.920Z,17.17
2023-03-15T16:55:28.645Z,18.60
2023-03-15T16:57:58.629Z,13.10
2023-03-15T17:00:30.872Z,15.85
2023-03-15T17:03:01.675Z,14.30
2023-03-15T17:05:33.015Z,10.52
2023-03-15T17:08:02.484Z,17.35
2023-03-15T17:10:33.489Z,15.73
2023-03-15T17:13:04.008Z,15.02
2023-03-15T17:15:34.314Z,12.35
2023-03-15T17:18:03.653Z,14.25
2023-03-15T17:20:32.631Z,15.70
2023-03-15T17:23:05.446Z,13.70
2023-03-15T17:25:35.366Z,12.00
2023-03-15T17:28:05.891Z,11.52
2023-03-15T17:30:38.354Z,14.65
2023-03-15T17:33:08.874Z,14.55
2023-03-15T17:35:41.901Z,20.30
2023-03-15T17:38:20.004Z,20.13
2023-03-15T17:40:49.967Z,12.75
2023-03-15T17:43:19.287Z,15.05
2023-03-15T17:45:49.453Z,18.35
2023-03-15T17:48:18.509Z,14.52
2023-03-15T17:50:47.415Z,14.80
2023-03-15T17:53:19.326Z,16.40
2023-03-15T17:55:49.219Z,17.52
2023-03-15T17:58:21.265Z,18.02
2023-03-15T18:00:54.626Z,17.70
2023-03-15T18:03:25.260Z,18.92
2023-03-15T18:05:54.782Z,16.30
2023-03-15T18:08:24.929Z,14.80
2023-03-15T18:10:54.349Z,17.02
2023-03-15T18:13:26.350Z,20.45
2023-03-15T18:15:56.838Z,17.40
2023-03-15T18:18:26.004Z,16.60
2023-03-15T18:20:55.243Z,18.17
2023-03-15T18:23:24.374Z,17.98
2023-03-15T18:25:53.324Z,18.63
2023-03-15T18:28:22.472Z,18.45
2023-03-15T18:30:51.254Z,16.98
2023-03-15T18:33:21.794Z,17.08
2023-03-15T18:35:50.759Z,22.60
2023-03-15T18:38:19.830Z,18.63
2023-03-15T18:40:51.147Z,19.10
2023-03-15T18:43:20.426Z,22.88
2023-03-15T18:45:49.302Z,23.33
2023-03-15T18:48:22.869Z,25.50
2023-03-15T18:50:57.968Z,24.50
2023-03-15T18:53:27.503Z,28.88
2023-03-15T18:55:56.261Z,24.90
2023-03-15T18:58:25.480Z,29.27
2023-03-15T19:00:54.680Z,32.90
2023-03-15T19:03:23.798Z,30.98
2023-03-15T19:05:53.627Z,29.50
2023-03-15T19:08:24.099Z,26.95
2023-03-15T19:10:59.842Z,28.98
2023-03-15T19:13:29.684Z,30.60
2023-03-15T19:15:58.588Z,28.02
2023-03-15T19:18:27.743Z,30.67
2023-03-15T19:20:56.632Z,29.00
2023-03-15T19:23:27.431Z,30.75
2023-03-15T19:25:56.289Z,30.20
2023-03-15T19:28:25.377Z,34.38
2023-03-15T19:30:54.460Z,35.33
2023-03-15T19:33:23.681Z,36.90
2023-03-15T19:35:53.406Z,38.70
2023-03-15T19:38:22.836Z,35.35
2023-03-15T19:40:55.294Z,34.42
2023-03-15T19:43:24.632Z,37.22
2023-03-15T19:45:53.619Z,36.00
2023-03-15T19:48:22.799Z,35.33
2023-03-15T19:50:51.671Z,43.83
2023-03-15T19:53:20.847Z,42.60
2023-03-15T19:55:49.887Z,48.97
2023-03-15T19:58:20.331Z,44.75
2023-03-15T20:00:52.049Z,42.80
2023-03-15T20:03:21.215Z,43.53
2023-03-15T20:05:50.004Z,46.15
2023-03-15T20:08:19.108Z,44.95
2023-03-15T20:10:48.628Z,41.95
2023-03-15T20:13:19.120Z,39.85
2023-03-15T20:15:47.919Z,43.15
2023-03-15T20:18:18.403Z,37.78
2023-03-15T20:20:47.254Z,39.50
2023-03-15T20:23:16.339Z,41.78
2023-03-15T20:25:45.412Z,39.28
2023-03-15T20:28:14.777Z,41.13
2023-03-15T20:30:45.441Z,41.00
2023-03-15T20:33:14.685Z,43.17
2023-03-15T20:35:43.512Z,43.35
2023-03-15T20:38:13.321Z,41.13
2023-03-15T20:40:42.254Z,40.83
2023-03-15T20:43:12.412Z,43.45
2023-03-15T20:45:41.270Z,41.40
2023-03-15T20:48:12.198Z,45.15
2023-03-15T20:50:41.774Z,41.22
2023-03-15T20:53:10.854Z,45.13
2023-03-15T20:55:39.731Z,44.90
2023-03-15T20:58:08.841Z,46.92
2023-03-15T21:00:40.928Z,51.92
2023-03-15T21:03:13.396Z,46.47
2023-03-15T21:05:43.587Z,49.92
2023-03-15T21:08:14.440Z,43.47
2023-03-15T21:10:43.309Z,45.92
2023-03-15T21:13:12.430Z,50.35
2023-03-15T21:15:45.955Z,48.88
2023-03-15T21:18:18.590Z,49.22
2023-03-15T21:20:47.589Z,49.08
2023-03-15T21:23:16.648Z,51.28
2023-03-15T21:25:45.610Z,51.40
2023-03-15T21:28:14.816Z,49.85
2023-03-15T21:30:43.547Z,51.30
2023-03-15T21:33:12.612Z,54.65
2023-03-15T21:35:43.110Z,58.35
2023-03-15T21:38:12.231Z,56.72
2023-03-15T21:40:41.053Z,60.03
2023-03-15T21:43:10.396Z,53.65
2023-03-15T21:45:39.766Z,59.13
2023-03-15T21:48:09.767Z,62.70
2023-03-15T21:50:38.597Z,57.20
2023-03-15T21:53:09.054Z,63.72
2023-03-15T21:55:38.573Z,62.92
2023-03-15T21:58:07.623Z,61.60
2023-03-15T22:00:36.613Z,62.83
2023-03-15T22:03:05.990Z,62.38
2023-03-15T22:05:35.716Z,63.22
2023-03-15T22:08:04.856Z,57.60
2023-03-15T22:10:35.085Z,61.72
2023-03-15T22:13:04.305Z,52.78
2023-03-15T22:15:33.922Z,52.70
2023-03-15T22:18:03.320Z,53.05
2023-03-15T22:20:32.319Z,55.42
2023-03-15T22:23:04.828Z,50.60
2023-03-15T22:25:35.352Z,49.10
2023-03-15T22:28:04.395Z,47.63
2023-03-15T22:30:33.916Z,43.40
2023-03-15T22:33:03.124Z,42.13
2023-03-15T22:35:32.941Z,41.70
2023-03-15T22:38:10.155Z,41.45
2023-03-15T22:40:43.018Z,38.15
2023-03-15T22:43:12.164Z,40.75
2023-03-15T22:45:41.559Z,37.72
2023-03-15T22:48:10.606Z,40.42
2023-03-15T22:50:39.497Z,41.33
2023-03-15T22:53:08.599Z,45.20
2023-03-15T22:55:37.391Z,37.42
2023-03-15T22:58:07.846Z,37.22
2023-03-15T23:00:36.592Z,39.75
2023-03-15T23:03:05.655Z,39.17
2023-03-15T23:05:35.690Z,40.65
2023-03-15T23:08:05.812Z,36.08
2023-03-15T23:10:34.694Z,36.03
2023-03-15T23:13:03.880Z,36.75
2023-03-15T23:15:34.146Z,39.08
2023-03-15T23:18:03.220Z,35.05
2023-03-15T23:20:32.603Z,36.95
2023-03-15T23:23:01.821Z,42.28
2023-03-15T23:25:30.789Z,38.08
2023-03-15T23:27:59.874Z,41.28
2023-03-15T23:30:33.855Z,36.15
2023-03-15T23:33:07.974Z,34.95
2023-03-15T23:35:37.151Z,38.33
2023-03-15T23:38:06.290Z,33.85
2023-03-15T23:40:35.194Z,39.45
2023-03-15T23:43:04.370Z,34.80
2023-03-15T23:45:34.129Z,37.90
2023-03-15T23:48:05.962Z,35.33
2023-03-15T23:50:34.739Z,37.63
2023-03-15T23:53:03.807Z,36.05
2023-03-15T23:55:33.505Z,34.20
2023-03-15T23:58:02.997Z,37.13
